createdAt,value
2023-01-13T00:03:12.913Z,28.38
2023-01-13T00:08:20.089Z,26.57
2023-01-13T00:13:27.331Z,27.34
2023-01-13T00:18:34.612Z,28.07
2023-01-13T00:23:41.814Z,27.72
2023-01-13T00:28:49.027Z,28.26
2023-01-13T00:33:56.316Z,28.58
2023-01-13T00:39:03.530Z,28.66
2023-01-13T00:44:10.739Z,28.76
2023-01-13T00:49:17.960Z,28.34
2023-01-13T00:54:25.160Z,27.40
2023-01-13T00:59:32.486Z,28.40
2023-01-13T01:04:39.857Z,28.48
2023-01-13T01:09:47.063Z,27.91
2023-01-13T01:14:54.270Z,28.69
2023-01-13T01:20:01.516Z,28.85
2023-01-13T01:25:08.773Z,28.70
2023-01-13T01:30:16.039Z,29.11
2023-01-13T01:35:23.306Z,28.98
2023-01-13T01:40:30.496Z,29.24
2023-01-13T01:45:37.721Z,29.44
2023-01-13T01:50:45.028Z,29.53
2023-01-13T01:55:52.220Z,29.47
2023-01-13T02:00:59.526Z,29.49
2023-01-13T02:06:06.647Z,29.50
2023-01-13T02:11:13.914Z,29.43
2023-01-13T02:16:21.186Z,29.45
2023-01-13T02:21:28.357Z,29.48
2023-01-13T02:26:35.539Z,29.48
2023-01-13T02:31:42.919Z,29.42
2023-01-13T02:36:50.077Z,29.37
2023-01-13T02:41:57.285Z,29.42
2023-01-13T02:47:04.499Z,29.46
2023-01-13T02:52:11.811Z,29.54
2023-01-13T02:57:18.975Z,29.56
2023-01-13T03:02:26.319Z,29.58
2023-01-13T03:07:33.361Z,29.29
2023-01-13T03:12:40.501Z,29.60
2023-01-13T03:17:47.755Z,29.74
2023-01-13T03:22:54.944Z,29.63
2023-01-13T03:28:02.159Z,29.48
2023-01-13T03:33:09.367Z,29.04
2023-01-13T03:38:16.633Z,29.33
2023-01-13T03:43:23.878Z,29.09
2023-01-13T03:48:31.079Z,28.46
2023-01-13T03:53:38.425Z,28.11
2023-01-13T03:58:45.696Z,27.90
2023-01-13T04:03:52.896Z,28.10
2023-01-13T04:09:00.030Z,28.61
2023-01-13T04:14:07.199Z,28.65
2023-01-13T04:19:14.391Z,28.64
2023-01-13T04:24:21.618Z,28.71
2023-01-13T04:29:28.814Z,28.93
2023-01-13T04:34:35.977Z,28.67
2023-01-13T04:39:43.233Z,28.78
2023-01-13T04:44:50.356Z,28.95
2023-01-13T04:49:57.601Z,28.74
2023-01-13T04:55:04.858Z,29.21
2023-01-13T05:00:12.018Z,29.19
2023-01-13T05:05:19.280Z,29.40
2023-01-13T05:10:26.429Z,29.45
2023-01-13T05:15:33.748Z,29.58
2023-01-13T05:20:40.811Z,29.55
2023-01-13T05:25:48.101Z,29.62
2023-01-13T05:30:55.303Z,29.70
2023-01-13T05:36:02.488Z,29.73
2023-01-13T05:41:09.725Z,29.72
2023-01-13T05:46:17.011Z,29.52
2023-01-13T05:51:24.284Z,29.78
2023-01-13T05:56:31.518Z,29.79
2023-01-13T06:01:38.711Z,29.81
2023-01-13T06:06:45.929Z,29.88
2023-01-13T06:11:53.329Z,29.86
2023-01-13T06:17:00.662Z,29.93
2023-01-13T06:22:07.838Z,29.83
2023-01-13T06:27:15.033Z,29.82
2023-01-13T06:32:22.244Z,29.77
2023-01-13T06:37:29.466Z,29.74
2023-01-13T06:42:36.722Z,29.79
2023-01-13T06:47:43.865Z,29.78
2023-01-13T06:52:51.063Z,29.70
2023-01-13T06:57:58.301Z,29.74
2023-01-13T07:03:07.032Z,29.76
2023-01-13T07:08:12.589Z,29.70
2023-01-13T07:13:20.016Z,29.80
2023-01-13T07:18:27.117Z,29.09
2023-01-13T07:23:34.286Z,29.82
2023-01-13T07:28:41.546Z,29.82
2023-01-13T07:33:48.706Z,29.87
2023-01-13T07:38:55.850Z,29.92
2023-01-13T07:44:03.061Z,30.18
2023-01-13T07:49:10.202Z,30.51
2023-01-13T07:54:19.318Z,30.33
2023-01-13T07:59:24.631Z,30.17
2023-01-13T08:04:31.816Z,30.25
2023-01-13T08:09:39.035Z,29.83
2023-01-13T08:14:46.274Z,29.81
2023-01-13T08:19:53.482Z,29.41
2023-01-13T08:25:00.641Z,29.15
2023-01-13T08:30:07.884Z,29.04
2023-01-13T08:35:15.082Z,28.91
2023-01-13T08:40:22.376Z,28.72
2023-01-13T08:45:29.628Z,28.65
2023-01-13T08:50:36.834Z,28.44
2023-01-13T08:55:44.105Z,28.47
2023-01-13T09:00:51.314Z,28.33
2023-01-13T09:05:58.515Z,28.29
2023-01-13T09:11:05.992Z,28.18
2023-01-13T09:16:13.333Z,28.03
2023-01-13T09:21:20.421Z,28.09
2023-01-13T09:26:27.619Z,28.07
2023-01-13T09:31:34.935Z,28.21
2023-01-13T09:36:42.012Z,28.20
2023-01-13T09:41:49.171Z,28.32
2023-01-13T09:46:56.374Z,28.15
2023-01-13T09:52:03.587Z,28.22
2023-01-13T09:57:10.823Z,28.14
2023-01-13T10:02:18.094Z,28.22
2023-01-13T10:07:25.218Z,28.47
2023-01-13T10:12:32.465Z,28.00
2023-01-13T10:17:39.694Z,28.14
2023-01-13T10:22:46.865Z,28.22
2023-01-13T10:27:54.094Z,28.16
2023-01-13T10:33:01.377Z,28.25
2023-01-13T10:38:08.599Z,27.93
2023-01-13T10:43:15.852Z,27.77
2023-01-13T10:48:23.129Z,27.55
2023-01-13T10:53:30.311Z,27.30
2023-01-13T10:58:37.532Z,27.39
2023-01-13T11:03:44.761Z,27.40
2023-01-13T11:08:51.914Z,27.38
2023-01-13T11:13:59.142Z,27.37
2023-01-13T11:19:06.304Z,27.66
2023-01-13T11:24:13.538Z,27.61
2023-01-13T11:29:20.725Z,27.71
2023-01-13T11:34:27.975Z,27.83
2023-01-13T11:39:35.209Z,27.82
2023-01-13T11:44:42.455Z,27.74
2023-01-13T11:49:49.662Z,27.62
2023-01-13T11:54:56.801Z,27.61
2023-01-13T12:00:03.970Z,27.55
2023-01-13T12:05:11.196Z,27.67
2023-01-13T12:10:18.447Z,27.61
2023-01-13T12:15:25.528Z,27.97
2023-01-13T12:20:32.998Z,27.93
2023-01-13T12:25:40.177Z,27.99
2023-01-13T12:30:47.335Z,29.19
2023-01-13T12:35:54.600Z,28.65
2023-01-13T12:41:01.798Z,29.07
2023-01-13T12:46:09.033Z,28.59
2023-01-13T12:51:18.249Z,28.69
2023-01-13T12:56:23.415Z,28.95
2023-01-13T13:01:30.719Z,28.98
2023-01-13T13:06:37.780Z,28.95
2023-01-13T13:11:44.952Z,28.92
2023-01-13T13:16:52.347Z,29.08
2023-01-13T13:21:59.559Z,29.23
2023-01-13T13:27:06.738Z,30.04
2023-01-13T13:32:13.960Z,30.31
2023-01-13T13:37:21.198Z,30.33
2023-01-13T13:42:28.363Z,30.45
2023-01-13T13:47:35.530Z,30.69
2023-01-13T13:52:42.779Z,30.42
2023-01-13T13:57:50.286Z,30.33
2023-01-13T14:02:57.504Z,30.23
2023-01-13T14:08:04.725Z,30.03
2023-01-13T14:13:11.893Z,31.17
2023-01-13T14:18:19.041Z,31.14
2023-01-13T14:23:26.259Z,30.85
2023-01-13T14:28:33.343Z,30.75
2023-01-13T14:33:40.498Z,30.45
2023-01-13T14:38:47.737Z,30.72
2023-01-13T14:43:54.939Z,30.70
2023-01-13T14:49:02.108Z,30.63
2023-01-13T14:54:09.286Z,30.66
2023-01-13T14:59:16.392Z,30.85
2023-01-13T15:04:23.661Z,30.61
2023-01-13T15:09:30.897Z,30.33
2023-01-13T15:14:38.088Z,30.09
2023-01-13T15:19:45.283Z,29.95
2023-01-13T15:24:52.468Z,29.87
2023-01-13T15:29:59.700Z,29.96
2023-01-13T15:35:06.935Z,29.82
2023-01-13T15:40:14.131Z,29.91
2023-01-13T15:45:21.374Z,30.06
2023-01-13T15:50:28.620Z,30.11
2023-01-13T15:55:35.806Z,30.16
2023-01-13T16:00:43.074Z,30.30
2023-01-13T16:05:50.231Z,30.36
2023-01-13T16:10:57.507Z,30.27
2023-01-13T16:16:04.679Z,29.91
2023-01-13T16:21:11.923Z,29.72
2023-01-13T16:26:19.115Z,29.78
2023-01-13T16:31:26.352Z,29.59
2023-01-13T16:36:33.631Z,29.73
2023-01-13T16:41:40.891Z,30.12
2023-01-13T16:46:48.652Z,30.39
2023-01-13T16:51:55.859Z,30.07
2023-01-13T16:57:03.129Z,30.34
2023-01-13T17:02:10.276Z,29.90
2023-01-13T17:07:17.805Z,29.42
2023-01-13T17:12:25.281Z,29.38
2023-01-13T17:17:32.588Z,29.39
2023-01-13T17:22:39.824Z,29.15
2023-01-13T17:27:47.050Z,29.18
2023-01-13T17:32:54.177Z,29.29
2023-01-13T17:38:01.721Z,29.19
2023-01-13T17:43:09.169Z,29.29
2023-01-13T17:48:16.392Z,29.30
2023-01-13T17:53:23.597Z,29.31
2023-01-13T17:58:31.076Z,29.47
2023-01-13T18:03:38.385Z,29.36
2023-01-13T18:08:45.797Z,29.45
2023-01-13T18:13:53.092Z,29.30
2023-01-13T18:19:00.273Z,29.51
2023-01-13T18:24:07.781Z,29.46
2023-01-13T18:29:15.188Z,29.62
2023-01-13T18:34:22.400Z,29.87
2023-01-13T18:39:29.661Z,29.49
2023-01-13T18:44:37.675Z,29.92
2023-01-13T18:49:44.830Z,29.31
2023-01-13T18:54:52.345Z,29.47
2023-01-13T18:59:59.974Z,29.89
2023-01-13T19:05:07.311Z,29.35
2023-01-13T19:10:14.563Z,29.78
2023-01-13T19:15:21.799Z,30.12
2023-01-13T19:20:28.990Z,30.00
2023-01-13T19:25:36.277Z,30.12
2023-01-13T19:30:43.828Z,30.09
2023-01-13T19:35:51.431Z,29.78
2023-01-13T19:40:58.922Z,29.97
2023-01-13T19:46:08.098Z,30.12
2023-01-13T19:51:15.265Z,29.51
2023-01-13T19:56:22.802Z,29.75
2023-01-13T20:01:30.673Z,29.86
2023-01-13T20:06:38.021Z,29.13
2023-01-13T20:11:45.453Z,29.61
2023-01-13T20:16:52.918Z,29.64
2023-01-13T20:22:01.479Z,29.64
2023-01-13T20:27:08.855Z,29.65
2023-01-13T20:32:16.231Z,29.61
2023-01-13T20:37:23.548Z,29.55
2023-01-13T20:42:31.018Z,29.51
2023-01-13T20:47:38.656Z,29.38
2023-01-13T20:52:46.160Z,29.18
2023-01-13T20:57:54.673Z,29.21
2023-01-13T21:03:01.973Z,29.29
2023-01-13T21:08:09.140Z,29.14
2023-01-13T21:13:16.303Z,28.85
2023-01-13T21:18:23.643Z,28.85
2023-01-13T21:23:30.821Z,28.52
2023-01-13T21:28:38.029Z,28.49
2023-01-13T21:33:45.429Z,28.59
2023-01-13T21:38:52.637Z,28.56
2023-01-13T21:43:59.889Z,28.71
2023-01-13T21:49:07.136Z,28.72
2023-01-13T21:54:14.342Z,28.67
2023-01-13T21:59:21.554Z,28.82
2023-01-13T22:04:28.779Z,28.94
2023-01-13T22:09:35.982Z,28.96
2023-01-13T22:14:43.179Z,28.88
2023-01-13T22:19:50.394Z,28.68
2023-01-13T22:24:57.642Z,28.50
2023-01-13T22:30:04.866Z,28.43
2023-01-13T22:35:12.084Z,28.30
2023-01-13T22:40:19.308Z,28.19
2023-01-13T22:45:26.543Z,28.05
2023-01-13T22:50:34.451Z,27.90
2023-01-13T22:55:41.664Z,27.87
2023-01-13T23:00:48.827Z,27.80
2023-01-13T23:05:56.085Z,27.71
2023-01-13T23:11:03.257Z,27.64
2023-01-13T23:16:10.502Z,27.46
2023-01-13T23:21:17.679Z,27.26
2023-01-13T23:26:24.877Z,27.32
2023-01-13T23:31:32.106Z,27.39
2023-01-13T23:36:39.377Z,27.21
2023-01-13T23:41:46.564Z,27.10
2023-01-13T23:46:53.798Z,27.02
2023-01-13T23:52:01.024Z,27.11
2023-01-13T23:57:08.201Z,27.10
